Terminal Aerodrome Forecast
Issued by NWS Amarillo, TX

Home | Current Version | Previous Version | Text Only | Print | Product List | Glossary On
Versions: 1 2 3 4 5 6 7 8 9 10 11 12 13 14 15 16 17 18
000
FTUS44 KAMA 251120
TAFDHT
TAF
KDHT 251120Z 2512/2612 14008KT P6SM SCT015 OVC025
      TEMPO 2516/2520 4SM -SHRA BR OVC015
     FM260000 05013KT P6SM -SHRA OVC015
     FM260400 02016G26KT P6SM -SHRA BKN004 OVC010=

USA.gov is the U.S. government's official web portal to all federal, state and local government web resources and services.